sensor_id;sensor_type;location;lat;lon;timestamp;P1;durP1;ratioP1;P2;durP2;ratioP2
25982;SDS011;13773;48.868;10.730;2022-08-01T00:01:35;3.17;;;2.00;;
25982;SDS011;13773;48.868;10.730;2022-08-01T00:04:01;2.90;;;2.10;;
25982;SDS011;13773;48.868;10.730;2022-08-01T00:06:27;3.23;;;2.10;;
25982;SDS011;13773;48.868;10.730;2022-08-01T00:08:52;2.07;;;1.93;;
25982;SDS011;13773;48.868;10.730;2022-08-01T00:11:18;2.07;;;1.90;;
25982;SDS011;13773;48.868;10.730;2022-08-01T00:13:44;1.70;;;1.57;;
25982;SDS011;13773;48.868;10.730;2022-08-01T00:16:09;2.40;;;1.90;;
25982;SDS011;13773;48.868;10.730;2022-08-01T00:18:35;2.57;;;1.87;;
25982;SDS011;13773;48.868;10.730;2022-08-01T00:21:01;2.17;;;1.97;;
25982;SDS011;13773;48.868;10.730;2022-08-01T00:23:28;3.27;;;1.93;;
25982;SDS011;13773;48.868;10.730;2022-08-01T00:25:54;2.23;;;1.90;;
25982;SDS011;13773;48.868;10.730;2022-08-01T00:28:20;4.33;;;2.00;;
25982;SDS011;13773;48.868;10.730;2022-08-01T00:30:45;2.13;;;1.97;;
25982;SDS011;13773;48.868;10.730;2022-08-01T00:33:11;2.47;;;1.80;;
25982;SDS011;13773;48.868;10.730;2022-08-01T00:35:37;2.70;;;1.90;;
25982;SDS011;13773;48.868;10.730;2022-08-01T00:38:03;1.83;;;1.70;;
25982;SDS011;13773;48.868;10.730;2022-08-01T00:40:28;1.80;;;1.70;;
25982;SDS011;13773;48.868;10.730;2022-08-01T00:42:54;2.63;;;2.07;;
25982;SDS011;13773;48.868;10.730;2022-08-01T00:45:20;3.30;;;1.90;;
25982;SDS011;13773;48.868;10.730;2022-08-01T00:47:45;2.10;;;1.80;;
25982;SDS011;13773;48.868;10.730;2022-08-01T00:50:11;3.50;;;2.00;;
25982;SDS011;13773;48.868;10.730;2022-08-01T00:52:38;3.67;;;2.37;;
25982;SDS011;13773;48.868;10.730;2022-08-01T00:55:05;2.20;;;1.70;;
25982;SDS011;13773;48.868;10.730;2022-08-01T00:57:31;2.13;;;1.93;;
25982;SDS011;13773;48.868;10.730;2022-08-01T00:59:57;2.40;;;2.20;;
25982;SDS011;13773;48.868;10.730;2022-08-01T01:02:23;2.60;;;2.00;;
25982;SDS011;13773;48.868;10.730;2022-08-01T01:04:49;2.30;;;2.10;;
25982;SDS011;13773;48.868;10.730;2022-08-01T01:07:23;1.97;;;1.87;;
25982;SDS011;13773;48.868;10.730;2022-08-01T01:13:30;3.57;;;1.93;;
25982;SDS011;13773;48.868;10.730;2022-08-01T01:16:05;2.13;;;1.93;;
25982;SDS011;13773;48.868;10.730;2022-08-01T01:18:39;3.47;;;1.90;;
25982;SDS011;13773;48.868;10.730;2022-08-01T01:29:30;2.70;;;1.97;;
25982;SDS011;13773;48.868;10.730;2022-08-01T01:34:32;1.90;;;1.80;;
25982;SDS011;13773;48.868;10.730;2022-08-01T01:37:01;2.10;;;1.90;;
25982;SDS011;13773;48.868;10.730;2022-08-01T01:39:29;2.47;;;2.10;;
25982;SDS011;13773;48.868;10.730;2022-08-01T01:41:57;2.57;;;2.00;;
25982;SDS011;13773;48.868;10.730;2022-08-01T01:44:25;2.93;;;2.20;;
25982;SDS011;13773;48.868;10.730;2022-08-01T01:46:52;3.47;;;2.07;;
25982;SDS011;13773;48.868;10.730;2022-08-01T01:49:23;2.70;;;2.13;;
25982;SDS011;13773;48.868;10.730;2022-08-01T01:51:51;2.43;;;2.20;;
25982;SDS011;13773;48.868;10.730;2022-08-01T01:54:20;2.27;;;2.07;;
25982;SDS011;13773;48.868;10.730;2022-08-01T01:56:47;3.13;;;2.40;;
25982;SDS011;13773;48.868;10.730;2022-08-01T01:59:24;2.40;;;2.00;;
25982;SDS011;13773;48.868;10.730;2022-08-01T02:01:53;3.50;;;2.17;;
25982;SDS011;13773;48.868;10.730;2022-08-01T02:04:22;3.77;;;2.43;;
25982;SDS011;13773;48.868;10.730;2022-08-01T02:06:50;2.10;;;1.97;;
25982;SDS011;13773;48.868;10.730;2022-08-01T02:09:17;2.63;;;2.13;;
25982;SDS011;13773;48.868;10.730;2022-08-01T02:11:46;2.90;;;2.50;;
25982;SDS011;13773;48.868;10.730;2022-08-01T02:14:14;2.43;;;2.23;;
25982;SDS011;13773;48.868;10.730;2022-08-01T02:16:41;4.47;;;2.30;;
25982;SDS011;13773;48.868;10.730;2022-08-01T02:19:10;2.33;;;2.03;;
25982;SDS011;13773;48.868;10.730;2022-08-01T02:24:31;2.37;;;2.10;;
25982;SDS011;13773;48.868;10.730;2022-08-01T02:27:15;3.10;;;2.50;;
25982;SDS011;13773;48.868;10.730;2022-08-01T02:29:49;2.80;;;2.60;;
25982;SDS011;13773;48.868;10.730;2022-08-01T02:32:23;3.80;;;2.33;;
25982;SDS011;13773;48.868;10.730;2022-08-01T02:34:52;2.40;;;2.20;;
25982;SDS011;13773;48.868;10.730;2022-08-01T02:37:20;2.43;;;2.23;;
25982;SDS011;13773;48.868;10.730;2022-08-01T02:39:47;3.43;;;2.40;;
25982;SDS011;13773;48.868;10.730;2022-08-01T02:42:16;3.73;;;2.30;;
25982;SDS011;13773;48.868;10.730;2022-08-01T02:44:44;2.40;;;2.20;;
25982;SDS011;13773;48.868;10.730;2022-08-01T02:47:12;2.30;;;2.10;;
25982;SDS011;13773;48.868;10.730;2022-08-01T02:49:42;3.60;;;2.30;;
25982;SDS011;13773;48.868;10.730;2022-08-01T02:52:11;2.87;;;2.60;;
25982;SDS011;13773;48.868;10.730;2022-08-01T02:54:40;2.80;;;2.50;;
25982;SDS011;13773;48.868;10.730;2022-08-01T02:57:09;2.57;;;2.37;;
25982;SDS011;13773;48.868;10.730;2022-08-01T02:59:36;2.77;;;2.40;;
25982;SDS011;13773;48.868;10.730;2022-08-01T03:02:04;3.77;;;2.23;;
25982;SDS011;13773;48.868;10.730;2022-08-01T03:04:32;2.40;;;1.87;;
25982;SDS011;13773;48.868;10.730;2022-08-01T03:07:00;3.10;;;2.60;;
25982;SDS011;13773;48.868;10.730;2022-08-01T03:09:29;3.87;;;2.63;;
25982;SDS011;13773;48.868;10.730;2022-08-01T03:11:58;3.47;;;2.53;;
25982;SDS011;13773;48.868;10.730;2022-08-01T03:14:26;4.00;;;2.37;;
25982;SDS011;13773;48.868;10.730;2022-08-01T03:16:53;3.67;;;3.10;;
25982;SDS011;13773;48.868;10.730;2022-08-01T03:19:20;4.80;;;2.93;;
25982;SDS011;13773;48.868;10.730;2022-08-01T03:21:49;3.97;;;2.67;;
25982;SDS011;13773;48.868;10.730;2022-08-01T03:24:16;2.50;;;2.30;;
25982;SDS011;13773;48.868;10.730;2022-08-01T03:26:43;4.40;;;2.40;;
25982;SDS011;13773;48.868;10.730;2022-08-01T03:29:12;3.20;;;2.80;;
25982;SDS011;13773;48.868;10.730;2022-08-01T03:31:46;2.43;;;2.23;;
25982;SDS011;13773;48.868;10.730;2022-08-01T03:34:13;4.57;;;2.80;;
25982;SDS011;13773;48.868;10.730;2022-08-01T03:36:45;3.00;;;2.67;;
25982;SDS011;13773;48.868;10.730;2022-08-01T03:39:13;2.50;;;2.30;;
25982;SDS011;13773;48.868;10.730;2022-08-01T03:41:41;3.87;;;2.73;;
25982;SDS011;13773;48.868;10.730;2022-08-01T03:44:15;2.50;;;2.30;;
25982;SDS011;13773;48.868;10.730;2022-08-01T03:46:46;4.77;;;2.50;;
25982;SDS011;13773;48.868;10.730;2022-08-01T03:49:18;2.77;;;2.43;;
25982;SDS011;13773;48.868;10.730;2022-08-01T03:51:48;3.57;;;2.40;;
25982;SDS011;13773;48.868;10.730;2022-08-01T03:54:16;2.40;;;2.20;;
25982;SDS011;13773;48.868;10.730;2022-08-01T03:56:46;2.73;;;2.50;;
25982;SDS011;13773;48.868;10.730;2022-08-01T03:59:14;2.73;;;2.53;;
25982;SDS011;13773;48.868;10.730;2022-08-01T04:01:42;2.83;;;2.53;;
25982;SDS011;13773;48.868;10.730;2022-08-01T04:04:09;2.67;;;2.47;;
25982;SDS011;13773;48.868;10.730;2022-08-01T04:06:39;2.87;;;2.30;;
25982;SDS011;13773;48.868;10.730;2022-08-01T04:09:08;2.97;;;2.67;;
25982;SDS011;13773;48.868;10.730;2022-08-01T04:11:35;3.43;;;2.87;;
25982;SDS011;13773;48.868;10.730;2022-08-01T04:14:01;3.00;;;2.70;;
25982;SDS011;13773;48.868;10.730;2022-08-01T04:16:26;4.40;;;2.50;;
25982;SDS011;13773;48.868;10.730;2022-08-01T04:18:52;3.33;;;2.73;;
25982;SDS011;13773;48.868;10.730;2022-08-01T04:21:18;3.03;;;2.53;;
25982;SDS011;13773;48.868;10.730;2022-08-01T04:23:48;4.63;;;2.53;;
25982;SDS011;13773;48.868;10.730;2022-08-01T04:26:16;2.90;;;2.70;;
25982;SDS011;13773;48.868;10.730;2022-08-01T04:28:44;4.07;;;2.63;;
25982;SDS011;13773;48.868;10.730;2022-08-01T04:31:12;2.93;;;2.63;;
25982;SDS011;13773;48.868;10.730;2022-08-01T04:33:42;4.13;;;2.50;;
25982;SDS011;13773;48.868;10.730;2022-08-01T04:36:12;2.93;;;2.63;;
25982;SDS011;13773;48.868;10.730;2022-08-01T04:38:40;3.33;;;2.67;;
25982;SDS011;13773;48.868;10.730;2022-08-01T04:41:11;2.40;;;2.20;;
25982;SDS011;13773;48.868;10.730;2022-08-01T04:43:38;3.50;;;3.20;;
25982;SDS011;13773;48.868;10.730;2022-08-01T04:46:05;3.60;;;2.60;;
25982;SDS011;13773;48.868;10.730;2022-08-01T04:48:33;5.83;;;3.03;;
25982;SDS011;13773;48.868;10.730;2022-08-01T04:51:01;3.47;;;2.63;;
25982;SDS011;13773;48.868;10.730;2022-08-01T04:53:27;3.43;;;2.33;;
25982;SDS011;13773;48.868;10.730;2022-08-01T04:55:53;2.70;;;2.50;;
25982;SDS011;13773;48.868;10.730;2022-08-01T04:58:18;3.90;;;2.57;;
25982;SDS011;13773;48.868;10.730;2022-08-01T05:00:45;3.77;;;2.87;;
25982;SDS011;13773;48.868;10.730;2022-08-01T05:03:11;3.23;;;2.87;;
25982;SDS011;13773;48.868;10.730;2022-08-01T05:05:37;3.60;;;2.50;;
25982;SDS011;13773;48.868;10.730;2022-08-01T05:08:02;4.37;;;2.53;;
25982;SDS011;13773;48.868;10.730;2022-08-01T05:10:28;3.80;;;2.67;;
25982;SDS011;13773;48.868;10.730;2022-08-01T05:12:55;3.47;;;2.70;;
25982;SDS011;13773;48.868;10.730;2022-08-01T05:15:21;2.80;;;2.50;;
25982;SDS011;13773;48.868;10.730;2022-08-01T05:17:47;2.47;;;2.20;;
25982;SDS011;13773;48.868;10.730;2022-08-01T05:20:12;2.80;;;2.60;;
25982;SDS011;13773;48.868;10.730;2022-08-01T05:22:38;3.40;;;2.83;;
25982;SDS011;13773;48.868;10.730;2022-08-01T05:25:05;4.97;;;3.03;;
25982;SDS011;13773;48.868;10.730;2022-08-01T05:27:31;4.13;;;2.80;;
25982;SDS011;13773;48.868;10.730;2022-08-01T05:29:57;2.93;;;2.67;;
25982;SDS011;13773;48.868;10.730;2022-08-01T05:32:23;3.20;;;2.90;;
25982;SDS011;13773;48.868;10.730;2022-08-01T05:34:48;2.77;;;2.57;;
25982;SDS011;13773;48.868;10.730;2022-08-01T05:37:14;4.73;;;3.17;;
25982;SDS011;13773;48.868;10.730;2022-08-01T05:39:40;4.47;;;2.80;;
25982;SDS011;13773;48.868;10.730;2022-08-01T05:42:06;3.37;;;3.07;;
25982;SDS011;13773;48.868;10.730;2022-08-01T05:44:31;3.10;;;2.80;;
25982;SDS011;13773;48.868;10.730;2022-08-01T05:46:57;3.27;;;2.80;;
25982;SDS011;13773;48.868;10.730;2022-08-01T05:49:23;3.63;;;2.90;;
25982;SDS011;13773;48.868;10.730;2022-08-01T05:51:48;3.53;;;2.80;;
25982;SDS011;13773;48.868;10.730;2022-08-01T05:54:14;3.10;;;2.87;;
25982;SDS011;13773;48.868;10.730;2022-08-01T05:56:40;3.33;;;3.07;;
25982;SDS011;13773;48.868;10.730;2022-08-01T05:59:05;3.27;;;2.97;;
25982;SDS011;13773;48.868;10.730;2022-08-01T06:01:31;4.27;;;2.90;;
25982;SDS011;13773;48.868;10.730;2022-08-01T06:03:57;3.03;;;2.83;;
25982;SDS011;13773;48.868;10.730;2022-08-01T06:06:23;5.73;;;3.20;;
25982;SDS011;13773;48.868;10.730;2022-08-01T06:08:49;3.60;;;2.80;;
25982;SDS011;13773;48.868;10.730;2022-08-01T06:11:15;3.40;;;3.03;;
25982;SDS011;13773;48.868;10.730;2022-08-01T06:13:41;4.43;;;2.80;;
25982;SDS011;13773;48.868;10.730;2022-08-01T06:16:06;3.97;;;2.80;;
25982;SDS011;13773;48.868;10.730;2022-08-01T06:18:32;3.47;;;3.13;;
25982;SDS011;13773;48.868;10.730;2022-08-01T06:20:58;3.23;;;2.90;;
25982;SDS011;13773;48.868;10.730;2022-08-01T06:23:23;4.90;;;3.00;;
25982;SDS011;13773;48.868;10.730;2022-08-01T06:25:51;2.87;;;2.67;;
25982;SDS011;13773;48.868;10.730;2022-08-01T06:28:19;3.70;;;2.90;;
25982;SDS011;13773;48.868;10.730;2022-08-01T06:30:45;4.03;;;2.90;;
25982;SDS011;13773;48.868;10.730;2022-08-01T06:33:11;4.50;;;2.87;;
25982;SDS011;13773;48.868;10.730;2022-08-01T06:35:36;2.90;;;2.60;;
25982;SDS011;13773;48.868;10.730;2022-08-01T06:38:02;3.20;;;2.90;;
25982;SDS011;13773;48.868;10.730;2022-08-01T06:40:28;4.03;;;3.20;;
25982;SDS011;13773;48.868;10.730;2022-08-01T06:42:54;3.10;;;2.80;;
25982;SDS011;13773;48.868;10.730;2022-08-01T06:45:19;4.03;;;2.67;;
25982;SDS011;13773;48.868;10.730;2022-08-01T06:47:47;3.27;;;2.73;;
25982;SDS011;13773;48.868;10.730;2022-08-01T06:50:13;3.10;;;2.90;;
25982;SDS011;13773;48.868;10.730;2022-08-01T06:52:39;3.03;;;2.83;;
25982;SDS011;13773;48.868;10.730;2022-08-01T06:55:06;3.10;;;2.80;;
25982;SDS011;13773;48.868;10.730;2022-08-01T06:57:32;3.37;;;2.63;;
25982;SDS011;13773;48.868;10.730;2022-08-01T07:00:00;3.40;;;3.10;;
25982;SDS011;13773;48.868;10.730;2022-08-01T07:02:31;2.90;;;2.70;;
25982;SDS011;13773;48.868;10.730;2022-08-01T07:04:56;3.27;;;2.97;;
25982;SDS011;13773;48.868;10.730;2022-08-01T07:07:25;3.07;;;2.70;;
25982;SDS011;13773;48.868;10.730;2022-08-01T07:09:51;3.03;;;2.73;;
25982;SDS011;13773;48.868;10.730;2022-08-01T07:12:17;3.10;;;2.57;;
25982;SDS011;13773;48.868;10.730;2022-08-01T07:14:43;3.07;;;2.87;;
25982;SDS011;13773;48.868;10.730;2022-08-01T07:17:08;3.70;;;2.60;;
25982;SDS011;13773;48.868;10.730;2022-08-01T07:19:34;3.53;;;3.00;;
25982;SDS011;13773;48.868;10.730;2022-08-01T07:22:00;3.10;;;2.80;;
25982;SDS011;13773;48.868;10.730;2022-08-01T07:24:25;5.17;;;3.00;;
25982;SDS011;13773;48.868;10.730;2022-08-01T07:26:51;3.90;;;2.87;;
25982;SDS011;13773;48.868;10.730;2022-08-01T07:29:19;3.60;;;2.90;;
25982;SDS011;13773;48.868;10.730;2022-08-01T07:31:45;3.13;;;2.80;;
25982;SDS011;13773;48.868;10.730;2022-08-01T07:34:11;3.20;;;2.70;;
25982;SDS011;13773;48.868;10.730;2022-08-01T07:36:36;2.73;;;2.43;;
25982;SDS011;13773;48.868;10.730;2022-08-01T07:39:02;2.90;;;2.67;;
25982;SDS011;13773;48.868;10.730;2022-08-01T07:41:28;3.13;;;2.83;;
25982;SDS011;13773;48.868;10.730;2022-08-01T07:43:53;4.10;;;2.50;;
25982;SDS011;13773;48.868;10.730;2022-08-01T07:46:19;4.27;;;2.80;;
25982;SDS011;13773;48.868;10.730;2022-08-01T07:48:44;3.87;;;2.60;;
25982;SDS011;13773;48.868;10.730;2022-08-01T07:51:10;4.90;;;2.80;;
25982;SDS011;13773;48.868;10.730;2022-08-01T07:53:37;3.73;;;2.63;;
25982;SDS011;13773;48.868;10.730;2022-08-01T07:56:03;2.77;;;2.50;;
25982;SDS011;13773;48.868;10.730;2022-08-01T07:58:33;2.53;;;2.33;;
25982;SDS011;13773;48.868;10.730;2022-08-01T08:00:59;2.93;;;2.70;;
25982;SDS011;13773;48.868;10.730;2022-08-01T08:03:25;3.20;;;2.33;;
25982;SDS011;13773;48.868;10.730;2022-08-01T08:05:51;3.30;;;2.80;;
25982;SDS011;13773;48.868;10.730;2022-08-01T08:08:17;3.63;;;2.43;;
25982;SDS011;13773;48.868;10.730;2022-08-01T08:10:43;3.50;;;2.87;;
25982;SDS011;13773;48.868;10.730;2022-08-01T08:13:09;4.07;;;2.63;;
25982;SDS011;13773;48.868;10.730;2022-08-01T08:15:35;2.50;;;2.30;;
25982;SDS011;13773;48.868;10.730;2022-08-01T08:18:01;2.70;;;2.50;;
25982;SDS011;13773;48.868;10.730;2022-08-01T08:20:28;4.32;;;2.70;;
25982;SDS011;13773;48.868;10.730;2022-08-01T08:22:54;2.80;;;2.60;;
25982;SDS011;13773;48.868;10.730;2022-08-01T08:25:22;2.80;;;2.60;;
25982;SDS011;13773;48.868;10.730;2022-08-01T08:27:48;2.65;;;2.45;;
25982;SDS011;13773;48.868;10.730;2022-08-01T08:30:13;3.35;;;1.92;;
25982;SDS011;13773;48.868;10.730;2022-08-01T08:32:39;2.85;;;2.10;;
25982;SDS011;13773;48.868;10.730;2022-08-01T08:35:06;2.38;;;1.83;;
25982;SDS011;13773;48.868;10.730;2022-08-01T08:37:33;4.05;;;2.10;;
25982;SDS011;13773;48.868;10.730;2022-08-01T08:40:00;2.92;;;2.22;;
25982;SDS011;13773;48.868;10.730;2022-08-01T08:42:26;1.83;;;1.73;;
25982;SDS011;13773;48.868;10.730;2022-08-01T08:44:51;2.28;;;2.13;;
25982;SDS011;13773;48.868;10.730;2022-08-01T08:47:20;2.30;;;2.10;;
25982;SDS011;13773;48.868;10.730;2022-08-01T08:49:48;2.35;;;2.10;;
25982;SDS011;13773;48.868;10.730;2022-08-01T08:52:16;2.10;;;1.90;;
25982;SDS011;13773;48.868;10.730;2022-08-01T08:54:44;2.05;;;1.90;;
25982;SDS011;13773;48.868;10.730;2022-08-01T08:57:10;2.85;;;2.10;;
25982;SDS011;13773;48.868;10.730;2022-08-01T08:59:39;1.88;;;1.77;;
25982;SDS011;13773;48.868;10.730;2022-08-01T09:02:05;1.90;;;1.75;;
25982;SDS011;13773;48.868;10.730;2022-08-01T09:04:34;2.53;;;2.20;;
25982;SDS011;13773;48.868;10.730;2022-08-01T09:07:03;3.10;;;2.08;;
25982;SDS011;13773;48.868;10.730;2022-08-01T09:09:29;3.25;;;2.20;;
25982;SDS011;13773;48.868;10.730;2022-08-01T09:11:56;2.60;;;2.13;;
25982;SDS011;13773;48.868;10.730;2022-08-01T09:14:22;2.10;;;1.90;;
25982;SDS011;13773;48.868;10.730;2022-08-01T09:17:01;3.72;;;2.13;;
25982;SDS011;13773;48.868;10.730;2022-08-01T09:19:43;3.88;;;2.33;;
25982;SDS011;13773;48.868;10.730;2022-08-01T09:22:13;2.42;;;2.22;;
25982;SDS011;13773;48.868;10.730;2022-08-01T09:24:52;2.92;;;2.50;;
25982;SDS011;13773;48.868;10.730;2022-08-01T09:27:25;2.85;;;2.22;;
25982;SDS011;13773;48.868;10.730;2022-08-01T09:29:52;2.28;;;2.05;;
25982;SDS011;13773;48.868;10.730;2022-08-01T09:32:18;2.83;;;1.77;;
25982;SDS011;13773;48.868;10.730;2022-08-01T09:34:45;3.15;;;2.30;;
25982;SDS011;13773;48.868;10.730;2022-08-01T09:37:13;1.55;;;1.45;;
25982;SDS011;13773;48.868;10.730;2022-08-01T09:39:43;1.63;;;1.52;;
25982;SDS011;13773;48.868;10.730;2022-08-01T09:42:20;2.00;;;1.63;;
25982;SDS011;13773;48.868;10.730;2022-08-01T09:44:50;1.77;;;1.45;;
25982;SDS011;13773;48.868;10.730;2022-08-01T09:47:16;1.60;;;1.40;;
25982;SDS011;13773;48.868;10.730;2022-08-01T09:49:45;2.53;;;1.50;;
25982;SDS011;13773;48.868;10.730;2022-08-01T09:52:22;2.00;;;1.73;;
25982;SDS011;13773;48.868;10.730;2022-08-01T09:54:53;1.92;;;1.48;;
25982;SDS011;13773;48.868;10.730;2022-08-01T09:57:26;1.92;;;1.73;;
25982;SDS011;13773;48.868;10.730;2022-08-01T09:59:53;1.88;;;1.40;;
25982;SDS011;13773;48.868;10.730;2022-08-01T10:02:31;1.90;;;1.63;;
25982;SDS011;13773;48.868;10.730;2022-08-01T10:04:58;2.42;;;1.50;;
25982;SDS011;13773;48.868;10.730;2022-08-01T10:07:24;1.83;;;1.50;;
25982;SDS011;13773;48.868;10.730;2022-08-01T10:09:50;1.45;;;1.35;;
25982;SDS011;13773;48.868;10.730;2022-08-01T10:12:19;2.38;;;1.55;;
25982;SDS011;13773;48.868;10.730;2022-08-01T10:14:48;1.58;;;1.48;;
25982;SDS011;13773;48.868;10.730;2022-08-01T10:17:17;1.58;;;1.40;;
25982;SDS011;13773;48.868;10.730;2022-08-01T10:19:44;1.80;;;1.40;;
25982;SDS011;13773;48.868;10.730;2022-08-01T10:22:12;2.42;;;1.60;;
25982;SDS011;13773;48.868;10.730;2022-08-01T10:24:41;1.48;;;1.38;;
25982;SDS011;13773;48.868;10.730;2022-08-01T10:27:09;3.17;;;1.75;;
25982;SDS011;13773;48.868;10.730;2022-08-01T10:32:33;2.10;;;1.90;;
25982;SDS011;13773;48.868;10.730;2022-08-01T10:35:00;1.42;;;1.33;;
25982;SDS011;13773;48.868;10.730;2022-08-01T10:37:27;2.00;;;1.40;;
25982;SDS011;13773;48.868;10.730;2022-08-01T10:39:53;1.75;;;1.50;;
25982;SDS011;13773;48.868;10.730;2022-08-01T10:42:20;2.05;;;1.52;;
25982;SDS011;13773;48.868;10.730;2022-08-01T10:44:46;1.88;;;1.60;;
25982;SDS011;13773;48.868;10.730;2022-08-01T10:47:14;1.45;;;1.35;;
25982;SDS011;13773;48.868;10.730;2022-08-01T10:50:04;1.58;;;1.48;;
25982;SDS011;13773;48.868;10.730;2022-08-01T10:53:03;1.50;;;1.40;;
25982;SDS011;13773;48.868;10.730;2022-08-01T10:56:12;1.40;;;1.30;;
25982;SDS011;13773;48.868;10.730;2022-08-01T11:03:43;1.95;;;1.52;;
25982;SDS011;13773;48.868;10.730;2022-08-01T11:08:59;1.60;;;1.50;;
25982;SDS011;13773;48.868;10.730;2022-08-01T11:11:28;1.73;;;1.50;;
25982;SDS011;13773;48.868;10.730;2022-08-01T11:16:36;1.77;;;1.67;;
25982;SDS011;13773;48.868;10.730;2022-08-01T11:19:03;2.05;;;1.20;;
25982;SDS011;13773;48.868;10.730;2022-08-01T11:30:21;1.60;;;1.50;;
25982;SDS011;13773;48.868;10.730;2022-08-01T11:35:15;1.63;;;1.52;;
25982;SDS011;13773;48.868;10.730;2022-08-01T11:37:41;1.50;;;1.40;;
25982;SDS011;13773;48.868;10.730;2022-08-01T11:40:14;2.88;;;1.35;;
25982;SDS011;13773;48.868;10.730;2022-08-01T11:42:43;1.75;;;1.55;;
25982;SDS011;13773;48.868;10.730;2022-08-01T11:45:08;2.83;;;1.40;;
25982;SDS011;13773;48.868;10.730;2022-08-01T11:47:44;2.15;;;1.55;;
25982;SDS011;13773;48.868;10.730;2022-08-01T11:53:01;1.60;;;1.40;;
25982;SDS011;13773;48.868;10.730;2022-08-01T11:55:29;4.32;;;1.70;;
25982;SDS011;13773;48.868;10.730;2022-08-01T11:58:02;2.85;;;1.70;;
25982;SDS011;13773;48.868;10.730;2022-08-01T12:00:32;2.25;;;1.80;;
25982;SDS011;13773;48.868;10.730;2022-08-01T12:03:02;2.55;;;1.98;;
25982;SDS011;13773;48.868;10.730;2022-08-01T12:05:30;2.03;;;1.70;;
25982;SDS011;13773;48.868;10.730;2022-08-01T12:07:58;1.90;;;1.67;;
25982;SDS011;13773;48.868;10.730;2022-08-01T12:10:26;2.45;;;2.00;;
25982;SDS011;13773;48.868;10.730;2022-08-01T12:12:59;2.35;;;2.15;;
25982;SDS011;13773;48.868;10.730;2022-08-01T12:15:29;2.00;;;1.77;;
25982;SDS011;13773;48.868;10.730;2022-08-01T12:17:58;2.25;;;2.05;;
25982;SDS011;13773;48.868;10.730;2022-08-01T12:23:27;2.33;;;1.83;;
25982;SDS011;13773;48.868;10.730;2022-08-01T12:25:52;1.92;;;1.73;;
25982;SDS011;13773;48.868;10.730;2022-08-01T12:28:18;2.08;;;1.65;;
25982;SDS011;13773;48.868;10.730;2022-08-01T12:30:46;3.60;;;1.70;;
25982;SDS011;13773;48.868;10.730;2022-08-01T12:33:16;3.40;;;1.40;;
25982;SDS011;13773;48.868;10.730;2022-08-01T12:35:43;1.42;;;1.23;;
25982;SDS011;13773;48.868;10.730;2022-08-01T12:38:16;2.35;;;1.50;;
25982;SDS011;13773;48.868;10.730;2022-08-01T12:40:45;2.20;;;1.55;;
25982;SDS011;13773;48.868;10.730;2022-08-01T12:43:16;2.03;;;1.92;;
25982;SDS011;13773;48.868;10.730;2022-08-01T12:45:44;3.22;;;1.92;;
25982;SDS011;13773;48.868;10.730;2022-08-01T12:48:12;1.98;;;1.70;;
25982;SDS011;13773;48.868;10.730;2022-08-01T12:50:42;1.70;;;1.60;;
25982;SDS011;13773;48.868;10.730;2022-08-01T12:53:17;4.07;;;1.85;;
25982;SDS011;13773;48.868;10.730;2022-08-01T12:55:48;1.67;;;1.40;;
25982;SDS011;13773;48.868;10.730;2022-08-01T12:58:15;1.77;;;1.67;;
25982;SDS011;13773;48.868;10.730;2022-08-01T13:00:43;2.08;;;1.88;;
25982;SDS011;13773;48.868;10.730;2022-08-01T13:03:11;2.20;;;2.00;;
25982;SDS011;13773;48.868;10.730;2022-08-01T13:05:44;3.13;;;1.90;;
25982;SDS011;13773;48.868;10.730;2022-08-01T13:08:14;1.98;;;1.75;;
25982;SDS011;13773;48.868;10.730;2022-08-01T13:10:45;3.22;;;1.90;;
25982;SDS011;13773;48.868;10.730;2022-08-01T13:13:12;2.00;;;1.85;;
25982;SDS011;13773;48.868;10.730;2022-08-01T13:15:39;2.08;;;1.80;;
25982;SDS011;13773;48.868;10.730;2022-08-01T13:21:13;3.85;;;1.90;;
25982;SDS011;13773;48.868;10.730;2022-08-01T13:24:08;3.95;;;1.42;;
25982;SDS011;13773;48.868;10.730;2022-08-01T13:29:36;2.10;;;1.30;;
25982;SDS011;13773;48.868;10.730;2022-08-01T13:34:39;3.38;;;1.92;;
25982;SDS011;13773;48.868;10.730;2022-08-01T13:37:05;1.80;;;1.45;;
25982;SDS011;13773;48.868;10.730;2022-08-01T13:39:31;2.05;;;1.83;;
25982;SDS011;13773;48.868;10.730;2022-08-01T13:42:05;4.18;;;1.52;;
25982;SDS011;13773;48.868;10.730;2022-08-01T13:44:32;1.80;;;1.70;;
25982;SDS011;13773;48.868;10.730;2022-08-01T13:46:58;1.60;;;1.40;;
25982;SDS011;13773;48.868;10.730;2022-08-01T13:49:24;1.58;;;1.38;;
25982;SDS011;13773;48.868;10.730;2022-08-01T13:51:50;1.75;;;1.55;;
25982;SDS011;13773;48.868;10.730;2022-08-01T13:54:16;1.95;;;1.50;;
25982;SDS011;13773;48.868;10.730;2022-08-01T13:56:42;1.60;;;1.50;;
25982;SDS011;13773;48.868;10.730;2022-08-01T13:59:08;2.13;;;1.42;;
25982;SDS011;13773;48.868;10.730;2022-08-01T14:01:34;2.83;;;1.20;;
25982;SDS011;13773;48.868;10.730;2022-08-01T14:04:01;3.30;;;1.35;;
25982;SDS011;13773;48.868;10.730;2022-08-01T14:06:27;3.05;;;1.80;;
25982;SDS011;13773;48.868;10.730;2022-08-01T14:08:53;1.55;;;1.42;;
25982;SDS011;13773;48.868;10.730;2022-08-01T14:11:19;2.33;;;1.20;;
25982;SDS011;13773;48.868;10.730;2022-08-01T14:13:45;3.15;;;1.63;;
25982;SDS011;13773;48.868;10.730;2022-08-01T14:16:10;2.78;;;1.30;;
25982;SDS011;13773;48.868;10.730;2022-08-01T14:18:36;2.28;;;1.27;;
25982;SDS011;13773;48.868;10.730;2022-08-01T14:21:02;1.50;;;1.20;;
25982;SDS011;13773;48.868;10.730;2022-08-01T14:23:27;1.50;;;1.40;;
25982;SDS011;13773;48.868;10.730;2022-08-01T14:25:53;2.25;;;1.30;;
25982;SDS011;13773;48.868;10.730;2022-08-01T14:28:19;1.58;;;1.48;;
25982;SDS011;13773;48.868;10.730;2022-08-01T14:30:45;1.40;;;1.30;;
25982;SDS011;13773;48.868;10.730;2022-08-01T14:33:11;3.47;;;1.30;;
25982;SDS011;13773;48.868;10.730;2022-08-01T14:35:38;2.10;;;1.40;;
25982;SDS011;13773;48.868;10.730;2022-08-01T14:38:04;2.35;;;1.20;;
25982;SDS011;13773;48.868;10.730;2022-08-01T14:40:30;3.10;;;1.38;;
25982;SDS011;13773;48.868;10.730;2022-08-01T14:42:56;3.88;;;1.30;;
25982;SDS011;13773;48.868;10.730;2022-08-01T14:45:22;1.58;;;1.48;;
25982;SDS011;13773;48.868;10.730;2022-08-01T14:47:48;2.17;;;1.52;;
25982;SDS011;13773;48.868;10.730;2022-08-01T14:50:14;1.55;;;1.30;;
25982;SDS011;13773;48.868;10.730;2022-08-01T14:52:41;1.20;;;1.10;;
25982;SDS011;13773;48.868;10.730;2022-08-01T14:55:08;1.58;;;1.25;;
25982;SDS011;13773;48.868;10.730;2022-08-01T14:57:35;1.92;;;1.42;;
25982;SDS011;13773;48.868;10.730;2022-08-01T15:00:03;2.08;;;1.27;;
25982;SDS011;13773;48.868;10.730;2022-08-01T15:02:30;2.42;;;1.10;;
25982;SDS011;13773;48.868;10.730;2022-08-01T15:04:56;3.05;;;1.15;;
25982;SDS011;13773;48.868;10.730;2022-08-01T15:07:22;1.40;;;1.23;;
25982;SDS011;13773;48.868;10.730;2022-08-01T15:09:48;1.58;;;1.10;;
25982;SDS011;13773;48.868;10.730;2022-08-01T15:12:13;3.00;;;1.10;;
25982;SDS011;13773;48.868;10.730;2022-08-01T15:14:39;1.05;;;1.05;;
25982;SDS011;13773;48.868;10.730;2022-08-01T15:17:15;1.58;;;0.90;;
25982;SDS011;13773;48.868;10.730;2022-08-01T15:19:41;1.33;;;1.10;;
25982;SDS011;13773;48.868;10.730;2022-08-01T15:22:06;1.08;;;1.00;;
25982;SDS011;13773;48.868;10.730;2022-08-01T15:24:32;1.63;;;1.20;;
25982;SDS011;13773;48.868;10.730;2022-08-01T15:26:58;1.00;;;1.00;;
25982;SDS011;13773;48.868;10.730;2022-08-01T15:29:23;2.25;;;1.10;;
25982;SDS011;13773;48.868;10.730;2022-08-01T15:31:49;2.30;;;1.40;;
25982;SDS011;13773;48.868;10.730;2022-08-01T15:34:15;3.47;;;1.30;;